sensor_id;sensor_type;location;lat;lon;timestamp;temperature;humidity
3954;DHT22;1991;48.682;9.030;2023-02-26T00:01:24;0.30;99.90
3954;DHT22;1991;48.682;9.030;2023-02-26T00:03:52;0.30;99.90
3954;DHT22;1991;48.682;9.030;2023-02-26T00:06:18;0.30;99.90
3954;DHT22;1991;48.682;9.030;2023-02-26T00:08:43;0.30;99.90
3954;DHT22;1991;48.682;9.030;2023-02-26T00:11:10;0.20;99.90
3954;DHT22;1991;48.682;9.030;2023-02-26T00:13:38;0.20;99.90
3954;DHT22;1991;48.682;9.030;2023-02-26T00:16:15;0.10;99.90
3954;DHT22;1991;48.682;9.030;2023-02-26T00:18:44;0.00;99.90
3954;DHT22;1991;48.682;9.030;2023-02-26T00:21:18;0.00;99.90
3954;DHT22;1991;48.682;9.030;2023-02-26T00:23:44;-0.20;99.90
3954;DHT22;1991;48.682;9.030;2023-02-26T00:26:10;-0.30;99.90
3954;DHT22;1991;48.682;9.030;2023-02-26T00:28:36;-0.30;99.90
3954;DHT22;1991;48.682;9.030;2023-02-26T00:31:02;-0.40;99.90
3954;DHT22;1991;48.682;9.030;2023-02-26T00:33:27;-0.50;99.90
3954;DHT22;1991;48.682;9.030;2023-02-26T00:35:59;-0.60;99.90
3954;DHT22;1991;48.682;9.030;2023-02-26T00:38:29;-0.80;99.90
3954;DHT22;1991;48.682;9.030;2023-02-26T00:40:57;-0.80;99.90
3954;DHT22;1991;48.682;9.030;2023-02-26T00:43:23;-0.90;99.90
3954;DHT22;1991;48.682;9.030;2023-02-26T00:51:24;-1.00;99.90
3954;DHT22;1991;48.682;9.030;2023-02-26T00:54:07;-0.90;99.90
3954;DHT22;1991;48.682;9.030;2023-02-26T00:56:34;-0.90;99.90
3954;DHT22;1991;48.682;9.030;2023-02-26T00:58:59;-1.00;99.90
3954;DHT22;1991;48.682;9.030;2023-02-26T01:01:25;-1.00;99.90
3954;DHT22;1991;48.682;9.030;2023-02-26T01:03:51;-0.90;99.90
3954;DHT22;1991;48.682;9.030;2023-02-26T01:06:20;-0.90;99.90
3954;DHT22;1991;48.682;9.030;2023-02-26T01:11:17;-1.00;99.90
3954;DHT22;1991;48.682;9.030;2023-02-26T01:13:43;-1.00;99.90
3954;DHT22;1991;48.682;9.030;2023-02-26T01:16:11;-1.00;99.90
3954;DHT22;1991;48.682;9.030;2023-02-26T01:18:44;-1.10;99.90
3954;DHT22;1991;48.682;9.030;2023-02-26T01:21:20;-1.00;99.90
3954;DHT22;1991;48.682;9.030;2023-02-26T01:23:50;-1.00;99.90
3954;DHT22;1991;48.682;9.030;2023-02-26T01:26:27;-1.00;99.90
3954;DHT22;1991;48.682;9.030;2023-02-26T01:28:54;-1.00;99.90
3954;DHT22;1991;48.682;9.030;2023-02-26T01:31:32;-1.00;99.90
3954;DHT22;1991;48.682;9.030;2023-02-26T01:34:54;-1.00;99.90
3954;DHT22;1991;48.682;9.030;2023-02-26T01:36:55;-1.10;99.90
3954;DHT22;1991;48.682;9.030;2023-02-26T01:39:42;-1.20;99.90
3954;DHT22;1991;48.682;9.030;2023-02-26T01:42:12;-1.30;99.90
3954;DHT22;1991;48.682;9.030;2023-02-26T01:44:57;-1.40;99.90
3954;DHT22;1991;48.682;9.030;2023-02-26T01:47:39;-1.40;99.90
3954;DHT22;1991;48.682;9.030;2023-02-26T01:50:12;-1.50;99.90
3954;DHT22;1991;48.682;9.030;2023-02-26T01:55:45;-1.60;99.90
3954;DHT22;1991;48.682;9.030;2023-02-26T01:58:12;-1.60;99.90
3954;DHT22;1991;48.682;9.030;2023-02-26T02:00:38;-1.70;99.90
3954;DHT22;1991;48.682;9.030;2023-02-26T02:03:04;-1.70;99.90
3954;DHT22;1991;48.682;9.030;2023-02-26T02:05:34;-1.80;99.90
3954;DHT22;1991;48.682;9.030;2023-02-26T02:08:00;-1.80;99.90
3954;DHT22;1991;48.682;9.030;2023-02-26T02:10:27;-1.90;99.90
3954;DHT22;1991;48.682;9.030;2023-02-26T02:13:04;-1.90;99.90
3954;DHT22;1991;48.682;9.030;2023-02-26T02:18:43;-1.90;99.90
3954;DHT22;1991;48.682;9.030;2023-02-26T02:24:23;-1.90;99.90
3954;DHT22;1991;48.682;9.030;2023-02-26T02:32:27;-1.50;99.90
3954;DHT22;1991;48.682;9.030;2023-02-26T02:37:29;-1.70;99.90
3954;DHT22;1991;48.682;9.030;2023-02-26T02:40:24;-1.90;99.90
3954;DHT22;1991;48.682;9.030;2023-02-26T02:43:16;-2.00;99.90
3954;DHT22;1991;48.682;9.030;2023-02-26T02:48:29;-2.20;99.90
3954;DHT22;1991;48.682;9.030;2023-02-26T02:51:01;-2.30;99.90
3954;DHT22;1991;48.682;9.030;2023-02-26T02:53:35;-2.40;99.90
3954;DHT22;1991;48.682;9.030;2023-02-26T02:56:26;-2.40;99.90
3954;DHT22;1991;48.682;9.030;2023-02-26T02:58:59;-2.40;99.90
3954;DHT22;1991;48.682;9.030;2023-02-26T03:01:28;-2.40;99.90
3954;DHT22;1991;48.682;9.030;2023-02-26T03:04:06;-2.50;99.90
3954;DHT22;1991;48.682;9.030;2023-02-26T03:06:33;-2.60;99.90
3954;DHT22;1991;48.682;9.030;2023-02-26T03:09:00;-2.60;99.90
3954;DHT22;1991;48.682;9.030;2023-02-26T03:11:26;-2.70;99.90
3954;DHT22;1991;48.682;9.030;2023-02-26T03:13:52;-2.70;99.90
3954;DHT22;1991;48.682;9.030;2023-02-26T03:22:05;-2.80;99.90
3954;DHT22;1991;48.682;9.030;2023-02-26T03:24:59;-2.80;99.90
3954;DHT22;1991;48.682;9.030;2023-02-26T03:28:14;-2.90;99.90
3954;DHT22;1991;48.682;9.030;2023-02-26T03:30:20;-3.00;99.90
3954;DHT22;1991;48.682;9.030;2023-02-26T03:35:39;-3.00;99.90
3954;DHT22;1991;48.682;9.030;2023-02-26T03:38:11;-3.00;99.90
3954;DHT22;1991;48.682;9.030;2023-02-26T03:40:46;-3.00;99.90
3954;DHT22;1991;48.682;9.030;2023-02-26T03:43:27;-3.00;99.90
3954;DHT22;1991;48.682;9.030;2023-02-26T03:45:58;-3.00;99.90
3954;DHT22;1991;48.682;9.030;2023-02-26T03:48:26;-3.00;99.90
3954;DHT22;1991;48.682;9.030;2023-02-26T03:50:57;-3.10;99.90
3954;DHT22;1991;48.682;9.030;2023-02-26T03:53:29;-3.10;99.90
3954;DHT22;1991;48.682;9.030;2023-02-26T03:56:01;-3.10;99.90
3954;DHT22;1991;48.682;9.030;2023-02-26T03:58:27;-3.10;99.90
3954;DHT22;1991;48.682;9.030;2023-02-26T04:01:06;-3.10;99.90
3954;DHT22;1991;48.682;9.030;2023-02-26T04:03:38;-3.20;99.90
3954;DHT22;1991;48.682;9.030;2023-02-26T04:06:05;-3.20;99.90
3954;DHT22;1991;48.682;9.030;2023-02-26T04:08:31;-3.30;99.90
3954;DHT22;1991;48.682;9.030;2023-02-26T04:11:09;-3.30;99.90
3954;DHT22;1991;48.682;9.030;2023-02-26T04:13:35;-3.30;99.90
3954;DHT22;1991;48.682;9.030;2023-02-26T04:16:01;-3.30;99.90
3954;DHT22;1991;48.682;9.030;2023-02-26T04:18:27;-3.20;99.90
3954;DHT22;1991;48.682;9.030;2023-02-26T04:20:52;-3.30;99.90
3954;DHT22;1991;48.682;9.030;2023-02-26T04:23:18;-3.30;99.90
3954;DHT22;1991;48.682;9.030;2023-02-26T04:25:44;-3.30;99.90
3954;DHT22;1991;48.682;9.030;2023-02-26T04:28:10;-3.40;99.90
3954;DHT22;1991;48.682;9.030;2023-02-26T04:30:36;-3.40;99.90
3954;DHT22;1991;48.682;9.030;2023-02-26T04:33:01;-3.40;99.90
3954;DHT22;1991;48.682;9.030;2023-02-26T04:35:27;-3.40;99.90
3954;DHT22;1991;48.682;9.030;2023-02-26T04:37:52;-3.40;99.90
3954;DHT22;1991;48.682;9.030;2023-02-26T04:40:18;-3.40;99.90
3954;DHT22;1991;48.682;9.030;2023-02-26T04:42:44;-3.40;99.90
3954;DHT22;1991;48.682;9.030;2023-02-26T04:45:09;-3.50;99.90
3954;DHT22;1991;48.682;9.030;2023-02-26T04:47:35;-3.50;99.90
3954;DHT22;1991;48.682;9.030;2023-02-26T04:50:01;-3.50;99.90
3954;DHT22;1991;48.682;9.030;2023-02-26T04:52:26;-3.50;99.90
3954;DHT22;1991;48.682;9.030;2023-02-26T04:54:52;-3.60;99.90
3954;DHT22;1991;48.682;9.030;2023-02-26T04:57:18;-3.60;99.90
3954;DHT22;1991;48.682;9.030;2023-02-26T04:59:43;-3.60;99.90
3954;DHT22;1991;48.682;9.030;2023-02-26T05:02:09;-3.70;99.90
3954;DHT22;1991;48.682;9.030;2023-02-26T05:04:34;-3.60;99.90
3954;DHT22;1991;48.682;9.030;2023-02-26T05:07:00;-3.70;99.90
3954;DHT22;1991;48.682;9.030;2023-02-26T05:09:26;-3.70;99.90
3954;DHT22;1991;48.682;9.030;2023-02-26T05:11:51;-3.60;99.90
3954;DHT22;1991;48.682;9.030;2023-02-26T05:14:17;-3.60;99.90
3954;DHT22;1991;48.682;9.030;2023-02-26T05:16:44;-3.60;99.90
3954;DHT22;1991;48.682;9.030;2023-02-26T05:19:09;-3.40;99.90
3954;DHT22;1991;48.682;9.030;2023-02-26T05:21:35;-3.30;99.90
3954;DHT22;1991;48.682;9.030;2023-02-26T05:24:01;-3.10;99.90
3954;DHT22;1991;48.682;9.030;2023-02-26T05:26:26;-3.00;99.90
3954;DHT22;1991;48.682;9.030;2023-02-26T05:28:52;-3.10;99.90
3954;DHT22;1991;48.682;9.030;2023-02-26T05:31:18;-3.20;99.90
3954;DHT22;1991;48.682;9.030;2023-02-26T05:33:43;-3.20;99.90
3954;DHT22;1991;48.682;9.030;2023-02-26T05:36:09;-3.30;99.90
3954;DHT22;1991;48.682;9.030;2023-02-26T05:38:35;-3.30;99.90
3954;DHT22;1991;48.682;9.030;2023-02-26T05:41:01;-3.40;99.90
3954;DHT22;1991;48.682;9.030;2023-02-26T05:43:26;-3.50;99.90
3954;DHT22;1991;48.682;9.030;2023-02-26T05:45:52;-3.50;99.90
3954;DHT22;1991;48.682;9.030;2023-02-26T05:48:19;-3.60;99.90
3954;DHT22;1991;48.682;9.030;2023-02-26T05:50:47;-3.70;99.90
3954;DHT22;1991;48.682;9.030;2023-02-26T05:53:13;-3.70;99.90
3954;DHT22;1991;48.682;9.030;2023-02-26T05:55:38;-3.70;99.90
3954;DHT22;1991;48.682;9.030;2023-02-26T05:58:04;-3.80;99.90
3954;DHT22;1991;48.682;9.030;2023-02-26T06:00:30;-3.80;99.90
3954;DHT22;1991;48.682;9.030;2023-02-26T06:02:55;-3.80;99.90
3954;DHT22;1991;48.682;9.030;2023-02-26T06:05:21;-3.80;99.90
3954;DHT22;1991;48.682;9.030;2023-02-26T06:07:47;-3.80;99.90
3954;DHT22;1991;48.682;9.030;2023-02-26T06:10:12;-3.80;99.90
3954;DHT22;1991;48.682;9.030;2023-02-26T06:12:38;-3.80;99.90
3954;DHT22;1991;48.682;9.030;2023-02-26T06:15:05;-3.80;99.90
3954;DHT22;1991;48.682;9.030;2023-02-26T06:17:32;-3.80;99.90
3954;DHT22;1991;48.682;9.030;2023-02-26T06:19:57;-3.80;99.90
3954;DHT22;1991;48.682;9.030;2023-02-26T06:22:23;-3.80;99.90
3954;DHT22;1991;48.682;9.030;2023-02-26T06:24:48;-3.90;99.90
3954;DHT22;1991;48.682;9.030;2023-02-26T06:27:14;-3.80;99.90
3954;DHT22;1991;48.682;9.030;2023-02-26T06:29:40;-3.70;99.90
3954;DHT22;1991;48.682;9.030;2023-02-26T06:32:05;-3.70;99.90
3954;DHT22;1991;48.682;9.030;2023-02-26T06:34:31;-3.70;99.90
3954;DHT22;1991;48.682;9.030;2023-02-26T06:36:57;-3.60;99.90
3954;DHT22;1991;48.682;9.030;2023-02-26T06:39:23;-3.60;99.90
3954;DHT22;1991;48.682;9.030;2023-02-26T06:41:49;-3.60;99.90
3954;DHT22;1991;48.682;9.030;2023-02-26T06:44:14;-3.50;99.90
3954;DHT22;1991;48.682;9.030;2023-02-26T06:46:40;-3.60;99.90
3954;DHT22;1991;48.682;9.030;2023-02-26T06:49:06;-3.50;99.90
3954;DHT22;1991;48.682;9.030;2023-02-26T06:51:32;-3.50;99.90
3954;DHT22;1991;48.682;9.030;2023-02-26T06:53:58;-3.40;99.90
3954;DHT22;1991;48.682;9.030;2023-02-26T06:56:24;-3.40;99.90
3954;DHT22;1991;48.682;9.030;2023-02-26T06:58:49;-3.20;99.90
3954;DHT22;1991;48.682;9.030;2023-02-26T07:01:15;-3.00;99.90
3954;DHT22;1991;48.682;9.030;2023-02-26T07:03:41;-3.00;99.90
3954;DHT22;1991;48.682;9.030;2023-02-26T07:06:08;-2.80;99.90
3954;DHT22;1991;48.682;9.030;2023-02-26T07:08:34;-2.70;99.90
3954;DHT22;1991;48.682;9.030;2023-02-26T07:11:00;-2.60;99.90
3954;DHT22;1991;48.682;9.030;2023-02-26T07:13:26;-2.60;99.90
3954;DHT22;1991;48.682;9.030;2023-02-26T07:15:52;-2.50;99.90
3954;DHT22;1991;48.682;9.030;2023-02-26T07:18:17;-2.50;99.90
3954;DHT22;1991;48.682;9.030;2023-02-26T07:20:43;-2.50;99.90
3954;DHT22;1991;48.682;9.030;2023-02-26T07:23:10;-2.40;99.90
3954;DHT22;1991;48.682;9.030;2023-02-26T07:25:35;-2.30;99.90
3954;DHT22;1991;48.682;9.030;2023-02-26T07:28:02;-2.00;99.90
3954;DHT22;1991;48.682;9.030;2023-02-26T07:30:28;-1.70;99.90
3954;DHT22;1991;48.682;9.030;2023-02-26T07:32:53;-1.40;99.90
3954;DHT22;1991;48.682;9.030;2023-02-26T07:35:19;-1.10;99.90
3954;DHT22;1991;48.682;9.030;2023-02-26T07:37:45;-0.70;99.90
3954;DHT22;1991;48.682;9.030;2023-02-26T07:40:11;-0.30;99.90
3954;DHT22;1991;48.682;9.030;2023-02-26T07:42:37;-0.10;99.90
3954;DHT22;1991;48.682;9.030;2023-02-26T07:45:03;0.10;99.90
3954;DHT22;1991;48.682;9.030;2023-02-26T07:47:28;0.20;99.90
3954;DHT22;1991;48.682;9.030;2023-02-26T07:49:55;0.50;99.90
3954;DHT22;1991;48.682;9.030;2023-02-26T07:52:21;0.70;99.90
3954;DHT22;1991;48.682;9.030;2023-02-26T07:54:47;0.90;99.90
3954;DHT22;1991;48.682;9.030;2023-02-26T07:57:12;1.20;99.90
3954;DHT22;1991;48.682;9.030;2023-02-26T07:59:38;1.30;99.90
3954;DHT22;1991;48.682;9.030;2023-02-26T08:02:04;1.30;99.90
3954;DHT22;1991;48.682;9.030;2023-02-26T08:04:29;1.50;99.90
3954;DHT22;1991;48.682;9.030;2023-02-26T08:06:58;1.50;99.60
3954;DHT22;1991;48.682;9.030;2023-02-26T08:09:23;1.30;99.20
3954;DHT22;1991;48.682;9.030;2023-02-26T08:11:50;1.50;99.00
3954;DHT22;1991;48.682;9.030;2023-02-26T08:14:16;1.60;98.60
3954;DHT22;1991;48.682;9.030;2023-02-26T08:16:41;1.80;97.80
3954;DHT22;1991;48.682;9.030;2023-02-26T08:19:07;1.50;96.60
3954;DHT22;1991;48.682;9.030;2023-02-26T08:21:32;1.30;96.80
3954;DHT22;1991;48.682;9.030;2023-02-26T08:23:58;1.50;96.70
3954;DHT22;1991;48.682;9.030;2023-02-26T08:26:24;1.40;98.00
3954;DHT22;1991;48.682;9.030;2023-02-26T08:28:49;1.50;99.90
3954;DHT22;1991;48.682;9.030;2023-02-26T08:31:15;1.60;99.90
3954;DHT22;1991;48.682;9.030;2023-02-26T08:33:41;2.20;99.90
3954;DHT22;1991;48.682;9.030;2023-02-26T08:36:07;2.70;99.90
3954;DHT22;1991;48.682;9.030;2023-02-26T08:38:32;2.70;97.60
3954;DHT22;1991;48.682;9.030;2023-02-26T08:40:58;2.60;96.50
3954;DHT22;1991;48.682;9.030;2023-02-26T08:43:24;2.60;95.30
3954;DHT22;1991;48.682;9.030;2023-02-26T08:45:54;2.80;94.90
3954;DHT22;1991;48.682;9.030;2023-02-26T08:48:20;3.00;93.70
3954;DHT22;1991;48.682;9.030;2023-02-26T08:50:46;3.50;92.20
3954;DHT22;1991;48.682;9.030;2023-02-26T08:53:12;3.60;90.90
3954;DHT22;1991;48.682;9.030;2023-02-26T08:55:37;3.50;90.30
3954;DHT22;1991;48.682;9.030;2023-02-26T08:58:03;3.60;90.60
3954;DHT22;1991;48.682;9.030;2023-02-26T09:00:29;3.50;88.80
3954;DHT22;1991;48.682;9.030;2023-02-26T09:02:55;3.50;90.00
3954;DHT22;1991;48.682;9.030;2023-02-26T09:05:21;3.20;90.60
3954;DHT22;1991;48.682;9.030;2023-02-26T09:07:47;2.80;91.10
3954;DHT22;1991;48.682;9.030;2023-02-26T09:10:13;2.50;91.60
3954;DHT22;1991;48.682;9.030;2023-02-26T09:12:39;2.00;92.00
3954;DHT22;1991;48.682;9.030;2023-02-26T09:15:07;1.80;93.00
3954;DHT22;1991;48.682;9.030;2023-02-26T09:17:33;1.80;93.90
3954;DHT22;1991;48.682;9.030;2023-02-26T09:19:59;1.60;93.20
3954;DHT22;1991;48.682;9.030;2023-02-26T09:22:24;1.50;93.70
3954;DHT22;1991;48.682;9.030;2023-02-26T09:24:50;1.40;94.30
3954;DHT22;1991;48.682;9.030;2023-02-26T09:27:16;1.10;94.70
3954;DHT22;1991;48.682;9.030;2023-02-26T09:29:42;1.10;96.30
3954;DHT22;1991;48.682;9.030;2023-02-26T09:32:07;1.00;98.20
3954;DHT22;1991;48.682;9.030;2023-02-26T09:34:37;1.00;98.60
3954;DHT22;1991;48.682;9.030;2023-02-26T09:37:04;1.00;98.70
3954;DHT22;1991;48.682;9.030;2023-02-26T09:39:30;1.00;99.10
3954;DHT22;1991;48.682;9.030;2023-02-26T09:41:59;1.20;98.50
3954;DHT22;1991;48.682;9.030;2023-02-26T09:44:31;1.30;98.40
3954;DHT22;1991;48.682;9.030;2023-02-26T09:47:12;1.40;97.70
3954;DHT22;1991;48.682;9.030;2023-02-26T09:52:29;1.30;97.10
3954;DHT22;1991;48.682;9.030;2023-02-26T09:55:00;1.30;97.90
3954;DHT22;1991;48.682;9.030;2023-02-26T09:57:34;1.40;97.80
3954;DHT22;1991;48.682;9.030;2023-02-26T10:00:01;1.40;97.20
3954;DHT22;1991;48.682;9.030;2023-02-26T10:02:39;1.40;97.60
3954;DHT22;1991;48.682;9.030;2023-02-26T10:05:29;1.50;97.40
3954;DHT22;1991;48.682;9.030;2023-02-26T10:08:03;1.60;97.00
3954;DHT22;1991;48.682;9.030;2023-02-26T10:13:24;1.70;96.60
3954;DHT22;1991;48.682;9.030;2023-02-26T10:15:56;1.60;96.40
3954;DHT22;1991;48.682;9.030;2023-02-26T10:18:31;1.40;96.50
3954;DHT22;1991;48.682;9.030;2023-02-26T10:23:49;1.50;97.40
3954;DHT22;1991;48.682;9.030;2023-02-26T10:26:20;1.30;97.10
3954;DHT22;1991;48.682;9.030;2023-02-26T10:31:41;1.00;98.20
3954;DHT22;1991;48.682;9.030;2023-02-26T10:34:25;0.80;98.90
3954;DHT22;1991;48.682;9.030;2023-02-26T10:37:13;0.70;99.60
3954;DHT22;1991;48.682;9.030;2023-02-26T10:39:43;0.80;99.90
3954;DHT22;1991;48.682;9.030;2023-02-26T10:42:22;0.80;99.90
3954;DHT22;1991;48.682;9.030;2023-02-26T10:44:59;0.70;99.90
3954;DHT22;1991;48.682;9.030;2023-02-26T10:47:41;0.70;99.90
3954;DHT22;1991;48.682;9.030;2023-02-26T10:50:13;0.80;99.90
3954;DHT22;1991;48.682;9.030;2023-02-26T10:52:42;1.00;99.90
3954;DHT22;1991;48.682;9.030;2023-02-26T10:55:40;1.20;99.90
3954;DHT22;1991;48.682;9.030;2023-02-26T10:58:15;1.20;99.90
3954;DHT22;1991;48.682;9.030;2023-02-26T11:00:45;1.20;99.90
3954;DHT22;1991;48.682;9.030;2023-02-26T11:03:33;1.40;99.90
3954;DHT22;1991;48.682;9.030;2023-02-26T11:06:01;1.50;99.90
3954;DHT22;1991;48.682;9.030;2023-02-26T11:08:38;1.70;99.10
3954;DHT22;1991;48.682;9.030;2023-02-26T11:11:06;1.70;99.20
3954;DHT22;1991;48.682;9.030;2023-02-26T11:13:33;1.80;98.90
3954;DHT22;1991;48.682;9.030;2023-02-26T11:16:05;2.00;97.90
3954;DHT22;1991;48.682;9.030;2023-02-26T11:18:46;2.30;97.10
3954;DHT22;1991;48.682;9.030;2023-02-26T11:21:22;2.40;95.90
3954;DHT22;1991;48.682;9.030;2023-02-26T11:23:50;2.80;95.10
3954;DHT22;1991;48.682;9.030;2023-02-26T11:26:18;3.10;94.00
3954;DHT22;1991;48.682;9.030;2023-02-26T11:28:53;3.20;92.80
3954;DHT22;1991;48.682;9.030;2023-02-26T11:31:22;2.90;92.60
3954;DHT22;1991;48.682;9.030;2023-02-26T11:33:50;2.50;93.30
3954;DHT22;1991;48.682;9.030;2023-02-26T11:36:19;2.40;94.30
3954;DHT22;1991;48.682;9.030;2023-02-26T11:38:57;2.40;93.60
3954;DHT22;1991;48.682;9.030;2023-02-26T11:41:24;2.50;93.90
3954;DHT22;1991;48.682;9.030;2023-02-26T11:44:01;2.60;94.20
3954;DHT22;1991;48.682;9.030;2023-02-26T11:46:29;2.60;93.50
3954;DHT22;1991;48.682;9.030;2023-02-26T11:48:58;2.60;93.20
3954;DHT22;1991;48.682;9.030;2023-02-26T11:51:26;2.40;93.40
3954;DHT22;1991;48.682;9.030;2023-02-26T11:53:57;2.00;94.20
3954;DHT22;1991;48.682;9.030;2023-02-26T11:56:40;1.80;94.50
3954;DHT22;1991;48.682;9.030;2023-02-26T12:01:42;1.60;95.80
3954;DHT22;1991;48.682;9.030;2023-02-26T12:04:10;1.70;95.90
3954;DHT22;1991;48.682;9.030;2023-02-26T12:06:36;1.80;94.80
3954;DHT22;1991;48.682;9.030;2023-02-26T12:09:02;1.90;93.80
3954;DHT22;1991;48.682;9.030;2023-02-26T12:14:51;1.90;94.50
3954;DHT22;1991;48.682;9.030;2023-02-26T12:23:54;2.20;92.40
3954;DHT22;1991;48.682;9.030;2023-02-26T12:29:14;1.80;93.40
3954;DHT22;1991;48.682;9.030;2023-02-26T12:34:34;1.40;95.70
3954;DHT22;1991;48.682;9.030;2023-02-26T12:50:26;1.70;95.20
3954;DHT22;1991;48.682;9.030;2023-02-26T12:53:03;1.60;95.60
3954;DHT22;1991;48.682;9.030;2023-02-26T12:58:14;1.50;95.80
3954;DHT22;1991;48.682;9.030;2023-02-26T13:15:18;2.10;94.20
3954;DHT22;1991;48.682;9.030;2023-02-26T13:17:51;2.20;93.40
3954;DHT22;1991;48.682;9.030;2023-02-26T13:20:26;2.20;93.30
3954;DHT22;1991;48.682;9.030;2023-02-26T13:22:56;2.20;93.10
3954;DHT22;1991;48.682;9.030;2023-02-26T13:30:48;2.40;96.30
3954;DHT22;1991;48.682;9.030;2023-02-26T13:33:17;2.40;93.10
3954;DHT22;1991;48.682;9.030;2023-02-26T13:35:45;2.20;93.00
3954;DHT22;1991;48.682;9.030;2023-02-26T13:41:12;1.90;94.00
3954;DHT22;1991;48.682;9.030;2023-02-26T13:44:14;1.70;93.80
3954;DHT22;1991;48.682;9.030;2023-02-26T13:46:54;1.60;94.20
3954;DHT22;1991;48.682;9.030;2023-02-26T13:49:24;1.50;94.60
3954;DHT22;1991;48.682;9.030;2023-02-26T13:51:53;1.50;94.60
3954;DHT22;1991;48.682;9.030;2023-02-26T13:54:31;1.50;93.50
3954;DHT22;1991;48.682;9.030;2023-02-26T13:59:51;2.00;92.70
3954;DHT22;1991;48.682;9.030;2023-02-26T14:04:54;2.20;91.00
3954;DHT22;1991;48.682;9.030;2023-02-26T14:07:46;2.40;89.80
3954;DHT22;1991;48.682;9.030;2023-02-26T14:10:36;3.10;88.00
3954;DHT22;1991;48.682;9.030;2023-02-26T14:13:18;3.60;85.40
3954;DHT22;1991;48.682;9.030;2023-02-26T14:16:11;3.80;83.80
3954;DHT22;1991;48.682;9.030;2023-02-26T14:23:57;4.70;77.50
3954;DHT22;1991;48.682;9.030;2023-02-26T14:26:24;4.60;74.80
3954;DHT22;1991;48.682;9.030;2023-02-26T14:31:52;4.60;77.40
3954;DHT22;1991;48.682;9.030;2023-02-26T14:34:27;4.30;75.80
3954;DHT22;1991;48.682;9.030;2023-02-26T14:36:59;4.20;75.40
3954;DHT22;1991;48.682;9.030;2023-02-26T14:39:39;4.20;76.10
3954;DHT22;1991;48.682;9.030;2023-02-26T14:42:15;4.70;77.70
3954;DHT22;1991;48.682;9.030;2023-02-26T14:44:45;6.50;71.60
3954;DHT22;1991;48.682;9.030;2023-02-26T14:47:11;6.70;65.30
3954;DHT22;1991;48.682;9.030;2023-02-26T14:49:40;8.10;63.90
3954;DHT22;1991;48.682;9.030;2023-02-26T14:57:33;8.20;57.10
3954;DHT22;1991;48.682;9.030;2023-02-26T15:03:30;11.30;53.90
3954;DHT22;1991;48.682;9.030;2023-02-26T15:09:26;9.70;48.70
3954;DHT22;1991;48.682;9.030;2023-02-26T15:25:43;9.00;49.80
3954;DHT22;1991;48.682;9.030;2023-02-26T15:28:37;9.70;49.30
3954;DHT22;1991;48.682;9.030;2023-02-26T15:31:01;10.70;49.50
3954;DHT22;1991;48.682;9.030;2023-02-26T15:33:28;10.50;46.80
3954;DHT22;1991;48.682;9.030;2023-02-26T15:35:55;10.00;47.20
3954;DHT22;1991;48.682;9.030;2023-02-26T15:38:21;9.30;48.00
3954;DHT22;1991;48.682;9.030;2023-02-26T15:40:50;8.10;49.30
3954;DHT22;1991;48.682;9.030;2023-02-26T15:43:20;6.80;51.80
3954;DHT22;1991;48.682;9.030;2023-02-26T15:45:48;5.90;54.20
3954;DHT22;1991;48.682;9.030;2023-02-26T15:48:19;5.00;56.50
3954;DHT22;1991;48.682;9.030;2023-02-26T15:50:51;4.30;59.00
3954;DHT22;1991;48.682;9.030;2023-02-26T15:53:36;3.70;61.10
3954;DHT22;1991;48.682;9.030;2023-02-26T15:56:08;3.10;63.20
3954;DHT22;1991;48.682;9.030;2023-02-26T15:58:44;3.00;64.50
3954;DHT22;1991;48.682;9.030;2023-02-26T16:01:16;2.90;65.60
3954;DHT22;1991;48.682;9.030;2023-02-26T16:03:42;2.80;66.10
3954;DHT22;1991;48.682;9.030;2023-02-26T16:06:16;2.60;66.80
3954;DHT22;1991;48.682;9.030;2023-02-26T16:08:42;2.60;68.30
3954;DHT22;1991;48.682;9.030;2023-02-26T16:11:08;2.90;68.20
3954;DHT22;1991;48.682;9.030;2023-02-26T16:13:35;3.30;66.50
3954;DHT22;1991;48.682;9.030;2023-02-26T16:16:09;3.40;65.50
3954;DHT22;1991;48.682;9.030;2023-02-26T16:18:38;3.20;65.50
3954;DHT22;1991;48.682;9.030;2023-02-26T16:21:06;3.20;65.70
3954;DHT22;1991;48.682;9.030;2023-02-26T16:23:40;3.10;65.90
3954;DHT22;1991;48.682;9.030;2023-02-26T16:26:48;2.80;66.90
3954;DHT22;1991;48.682;9.030;2023-02-26T16:29:18;2.50;67.80
3954;DHT22;1991;48.682;9.030;2023-02-26T16:31:51;2.30;67.90
3954;DHT22;1991;48.682;9.030;2023-02-26T16:37:30;1.90;67.40
3954;DHT22;1991;48.682;9.030;2023-02-26T16:40:33;1.70;66.50
3954;DHT22;1991;48.682;9.030;2023-02-26T16:45:53;1.40;66.60
3954;DHT22;1991;48.682;9.030;2023-02-26T16:48:28;1.20;68.00
3954;DHT22;1991;48.682;9.030;2023-02-26T16:51:12;1.10;67.90
3954;DHT22;1991;48.682;9.030;2023-02-26T16:53:49;1.10;68.20
3954;DHT22;1991;48.682;9.030;2023-02-26T16:56:24;1.10;68.90
3954;DHT22;1991;48.682;9.030;2023-02-26T17:01:52;0.90;70.30
3954;DHT22;1991;48.682;9.030;2023-02-26T17:04:23;0.90;70.10
3954;DHT22;1991;48.682;9.030;2023-02-26T17:06:49;0.90;69.30
3954;DHT22;1991;48.682;9.030;2023-02-26T17:09:40;0.80;69.60
3954;DHT22;1991;48.682;9.030;2023-02-26T17:12:20;0.80;69.00
3954;DHT22;1991;48.682;9.030;2023-02-26T17:14:56;0.70;69.10
3954;DHT22;1991;48.682;9.030;2023-02-26T17:17:23;0.70;69.60
3954;DHT22;1991;48.682;9.030;2023-02-26T17:19:49;0.70;69.40
3954;DHT22;1991;48.682;9.030;2023-02-26T17:22:17;0.70;68.90
3954;DHT22;1991;48.682;9.030;2023-02-26T17:24:44;0.70;69.50
3954;DHT22;1991;48.682;9.030;2023-02-26T17:27:15;0.60;69.50
3954;DHT22;1991;48.682;9.030;2023-02-26T17:29:44;0.60;68.90
3954;DHT22;1991;48.682;9.030;2023-02-26T17:32:18;0.50;69.30
3954;DHT22;1991;48.682;9.030;2023-02-26T17:34:44;0.40;68.80
3954;DHT22;1991;48.682;9.030;2023-02-26T17:37:11;0.30;70.20
3954;DHT22;1991;48.682;9.030;2023-02-26T17:39:37;0.20;70.20
3954;DHT22;1991;48.682;9.030;2023-02-26T17:42:03;0.20;70.30
3954;DHT22;1991;48.682;9.030;2023-02-26T17:44:33;0.20;70.70
3954;DHT22;1991;48.682;9.030;2023-02-26T17:46:59;0.20;70.40
3954;DHT22;1991;48.682;9.030;2023-02-26T17:49:24;0.00;71.00
3954;DHT22;1991;48.682;9.030;2023-02-26T17:51:50;-0.20;71.30
3954;DHT22;1991;48.682;9.030;2023-02-26T17:54:18;-0.20;73.50
3954;DHT22;1991;48.682;9.030;2023-02-26T17:56:44;-0.20;73.80
3954;DHT22;1991;48.682;9.030;2023-02-26T17:59:10;-0.20;74.20
3954;DHT22;1991;48.682;9.030;2023-02-26T18:01:37;-0.20;75.10
3954;DHT22;1991;48.682;9.030;2023-02-26T18:04:03;-0.20;75.40
3954;DHT22;1991;48.682;9.030;2023-02-26T18:06:34;-0.10;75.60
3954;DHT22;1991;48.682;9.030;2023-02-26T18:09:02;-0.20;76.20
3954;DHT22;1991;48.682;9.030;2023-02-26T18:11:30;-0.20;76.10
3954;DHT22;1991;48.682;9.030;2023-02-26T18:13:57;-0.40;77.40
3954;DHT22;1991;48.682;9.030;2023-02-26T18:16:28;-0.50;77.60
3954;DHT22;1991;48.682;9.030;2023-02-26T18:18:56;-0.60;77.90
3954;DHT22;1991;48.682;9.030;2023-02-26T18:21:23;-0.80;79.40
3954;DHT22;1991;48.682;9.030;2023-02-26T18:23:50;-0.80;79.50
3954;DHT22;1991;48.682;9.030;2023-02-26T18:26:18;-0.90;80.00
3954;DHT22;1991;48.682;9.030;2023-02-26T18:28:47;-1.00;80.00
3954;DHT22;1991;48.682;9.030;2023-02-26T18:31:14;-0.90;80.50
3954;DHT22;1991;48.682;9.030;2023-02-26T18:33:40;-0.80;80.00
3954;DHT22;1991;48.682;9.030;2023-02-26T18:36:25;-0.80;78.90
3954;DHT22;1991;48.682;9.030;2023-02-26T18:38:57;-1.00;79.80
3954;DHT22;1991;48.682;9.030;2023-02-26T18:41:25;-1.00;79.00
3954;DHT22;1991;48.682;9.030;2023-02-26T18:43:51;-1.00;78.90
3954;DHT22;1991;48.682;9.030;2023-02-26T18:46:17;-1.10;80.10
3954;DHT22;1991;48.682;9.030;2023-02-26T18:48:43;-1.20;80.30
3954;DHT22;1991;48.682;9.030;2023-02-26T18:51:08;-1.20;81.00
3954;DHT22;1991;48.682;9.030;2023-02-26T18:53:35;-1.10;80.40
3954;DHT22;1991;48.682;9.030;2023-02-26T18:56:01;-0.90;80.10
3954;DHT22;1991;48.682;9.030;2023-02-26T18:58:27;-0.90;79.50
3954;DHT22;1991;48.682;9.030;2023-02-26T19:00:52;-0.80;80.10